Time;durP1;ratioP1;P1;durP2;ratioP2;P2;SDS_P1;SDS_P2;PMS_P1;PMS_P2;Temp;Humidity;BMP_temperature;BMP_pressure;BME280_temperature;BME280_humidity;BME280_pressure;Samples;Min_cycle;Max_cycle;Signal;HPM_P1;HPM_P2
2022/05/15 00:04:48;;;;;;;11.50;5.85;;;15.70;86.40;;;;;;12794010;23;20163;-87
2022/05/15 00:09:50;;;;;;;2.25;2.05;;;15.70;85.90;;;;;;12808619;23;20168;-87
2022/05/15 00:14:53;;;;;;;4.63;2.60;;;16.00;90.70;;;;;;12833641;23;20176;-87
2022/05/15 00:19:55;;;;;;;4.57;2.97;;;17.20;85.40;;;;;;12793109;23;20230;-87
2022/05/15 00:24:58;;;;;;;5.18;2.92;;;17.20;85.00;;;;;;12793282;23;20195;-87
2022/05/15 00:30:00;;;;;;;3.55;2.40;;;17.10;84.60;;;;;;12816313;23;20202;-87
2022/05/15 00:35:02;;;;;;;3.97;2.72;;;17.30;84.50;;;;;;12790743;23;20179;-87
2022/05/15 00:40:06;;;;;;;3.00;2.13;;;17.50;83.60;;;;;;12790336;23;20261;-87
2022/05/15 00:45:10;;;;;;;2.58;2.38;;;17.80;82.60;;;;;;12815205;23;20184;-87
2022/05/15 00:50:16;;;;;;;2.13;1.73;;;17.90;81.60;;;;;;12807911;23;20172;-86
2022/05/15 00:55:30;;;;;;;3.10;2.13;;;18.10;81.10;;;;;;12815073;23;20211;-87
2022/05/15 01:00:34;;;;;;;3.20;2.15;;;18.30;80.10;;;;;;12806810;23;20570;-87
2022/05/15 01:05:41;;;;;;;3.60;2.50;;;18.30;79.20;;;;;;12789999;23;20246;-87
2022/05/15 01:10:47;;;;;;;3.20;2.30;;;18.50;79.30;;;;;;12789900;23;20238;-88
2022/05/15 01:15:50;;;;;;;3.22;2.03;;;18.60;78.90;;;;;;12789899;23;20183;-87
2022/05/15 01:21:18;;;;;;;3.03;2.10;;;18.50;75.20;;;;;;12789444;23;20203;-87
2022/05/15 01:26:22;;;;;;;2.92;2.20;;;18.50;78.70;;;;;;12776481;23;20491;-87
2022/05/15 01:31:26;;;;;;;2.58;2.30;;;18.50;78.60;;;;;;12789303;23;20184;-87
2022/05/15 01:36:29;;;;;;;2.17;1.95;;;18.60;78.20;;;;;;12814222;23;20502;-87
2022/05/15 01:41:32;;;;;;;3.35;2.28;;;18.50;78.20;;;;;;12790247;23;20187;-87
2022/05/15 01:46:35;;;;;;;2.88;1.70;;;18.50;78.20;;;;;;12789284;23;20202;-87
2022/05/15 01:51:44;;;;;;;2.15;1.90;;;18.60;78.00;;;;;;12793877;23;20180;-87
2022/05/15 01:56:47;;;;;;;3.95;1.80;;;18.50;78.70;;;;;;12818390;23;20580;-87
2022/05/15 02:01:52;;;;;;;3.45;2.67;;;18.30;78.50;;;;;;12793338;23;20195;-88
2022/05/15 02:06:55;;;;;;;3.00;2.25;;;18.20;78.90;;;;;;12793724;23;20183;-87
2022/05/15 02:11:59;;;;;;;2.35;1.80;;;18.00;79.50;;;;;;12792993;23;20203;-87
2022/05/15 02:17:04;;;;;;;2.47;2.17;;;18.10;79.20;;;;;;12818002;23;20190;-87
2022/05/15 02:22:12;;;;;;;4.97;1.92;;;18.10;79.00;;;;;;12817693;23;20203;-87
2022/05/15 02:27:14;;;;;;;2.55;2.35;;;17.70;79.80;;;;;;12792609;23;20180;-87
2022/05/15 02:32:17;;;;;;;7.80;3.05;;;17.50;80.40;;;;;;12792487;23;20189;-87
2022/05/15 02:37:19;;;;;;;3.97;2.08;;;17.30;81.70;;;;;;12792808;23;20250;-87
2022/05/15 02:42:22;;;;;;;5.63;2.13;;;16.60;83.10;;;;;;12792958;23;20238;-87
2022/05/15 02:47:25;;;;;;;3.47;2.33;;;16.60;83.70;;;;;;12791877;23;20258;-87
2022/05/15 02:52:28;;;;;;;3.60;2.20;;;16.10;85.70;;;;;;12793765;23;20180;-87
2022/05/15 02:57:31;;;;;;;3.42;1.90;;;15.90;87.00;;;;;;12793404;23;20588;-87
2022/05/15 03:02:35;;;;;;;3.05;1.75;;;15.10;91.50;;;;;;12816884;23;20238;-87
2022/05/15 03:07:38;;;;;;;4.30;1.83;;;15.40;91.00;;;;;;12793146;23;20188;-87
2022/05/15 03:12:41;;;;;;;2.47;2.10;;;15.50;90.80;;;;;;12792419;23;20234;-87
2022/05/15 03:17:44;;;;;;;4.13;2.17;;;15.50;91.70;;;;;;12792300;23;20196;-87
2022/05/15 03:22:46;;;;;;;4.20;2.60;;;15.60;91.00;;;;;;12793465;23;20246;-87
2022/05/15 03:27:49;;;;;;;2.90;2.13;;;15.30;91.30;;;;;;12792638;23;20176;-87
2022/05/15 03:32:52;;;;;;;3.53;1.73;;;15.70;90.90;;;;;;12767768;23;20184;-87
2022/05/15 03:37:54;;;;;;;2.07;1.53;;;15.90;90.20;;;;;;12789729;23;20246;-87
2022/05/15 03:42:57;;;;;;;2.50;1.65;;;16.40;89.40;;;;;;12789339;23;20238;-87
2022/05/15 03:48:00;;;;;;;2.97;2.30;;;16.00;88.80;;;;;;12789309;23;20208;-87
2022/05/15 03:53:02;;;;;;;1.98;1.65;;;16.00;90.20;;;;;;12789575;23;20183;-87
2022/05/15 03:58:05;;;;;;;4.38;2.00;;;16.30;89.70;;;;;;12788721;23;20200;-87
2022/05/15 04:03:08;;;;;;;2.20;1.75;;;16.50;87.30;;;;;;12791412;23;20238;-88
2022/05/15 04:08:11;;;;;;;1.88;1.75;;;17.00;86.80;;;;;;12790446;23;20234;-88
2022/05/15 04:13:13;;;;;;;3.72;1.70;;;17.60;83.80;;;;;;12791085;23;20183;-87
2022/05/15 04:18:16;;;;;;;1.90;1.65;;;18.10;82.10;;;;;;12793419;23;20566;-88
2022/05/15 04:23:18;;;;;;;1.85;1.65;;;18.50;80.30;;;;;;12791361;23;20812;-87
2022/05/15 04:28:22;;;;;;;4.05;1.63;;;18.70;79.10;;;;;;12817419;23;20176;-87
2022/05/15 04:33:25;;;;;;;2.03;1.63;;;19.00;78.00;;;;;;12791244;23;20188;-87
2022/05/15 04:38:27;;;;;;;1.60;1.50;;;19.00;77.60;;;;;;12793313;23;20195;-87
2022/05/15 04:43:29;;;;;;;1.55;1.45;;;19.00;77.10;;;;;;12790509;23;20516;-88
2022/05/15 04:48:32;;;;;;;4.03;1.60;;;19.00;76.90;;;;;;12789847;23;20211;-87
2022/05/15 04:53:35;;;;;;;4.07;2.03;;;19.10;76.90;;;;;;12792678;23;20172;-87
2022/05/15 04:58:39;;;;;;;2.85;1.70;;;18.60;76.80;;;;;;12790035;23;20196;-87
2022/05/15 05:03:42;;;;;;;2.88;1.48;;;19.00;76.80;;;;;;12789714;23;20495;-87
2022/05/15 05:08:44;;;;;;;2.35;2.15;;;19.20;76.10;;;;;;12832360;23;20516;-87
2022/05/15 05:13:47;;;;;;;3.35;1.52;;;19.20;76.00;;;;;;12788635;23;20183;-87
2022/05/15 05:18:50;;;;;;;4.93;2.00;;;18.10;78.70;;;;;;12811397;23;20184;-87
2022/05/15 05:23:52;;;;;;;2.20;1.97;;;18.70;77.10;;;;;;12789379;23;20804;-87
2022/05/15 05:28:55;;;;;;;2.47;1.80;;;19.10;76.00;;;;;;12815102;23;20223;-88
2022/05/15 05:33:58;;;;;;;5.88;2.33;;;18.70;76.50;;;;;;12787819;23;20192;-87
2022/05/15 05:39:00;;;;;;;6.60;2.00;;;16.40;77.80;;;;;;12788180;23;20254;-87
2022/05/15 05:44:03;;;;;;;2.03;1.52;;;18.10;77.70;;;;;;12788521;23;20252;-86
2022/05/15 05:49:06;;;;;;;2.22;1.60;;;18.80;77.90;;;;;;12787510;23;20258;-86
2022/05/15 05:54:08;;;;;;;3.08;1.52;;;18.80;76.40;;;;;;12789039;23;20172;-86
2022/05/15 05:59:11;;;;;;;3.30;1.93;;;19.10;74.80;;;;;;12805207;23;20191;-86
2022/05/15 06:09:40;;;;;;;2.80;1.48;;;17.20;83.70;;;;;;12811697;23;20183;-86
2022/05/15 06:14:44;;;;;;;6.55;2.00;;;18.70;78.10;;;;;;12786742;23;20175;-86
2022/05/15 06:19:46;;;;;;;2.50;1.50;;;18.50;75.80;;;;;;12786026;23;20281;-86
2022/05/15 06:24:49;;;;;;;3.72;1.90;;;18.80;76.30;;;;;;12788224;23;20215;-86
2022/05/15 06:29:56;;;;;;;6.43;2.42;;;17.20;78.40;;;;;;12785625;23;20239;-86
2022/05/15 06:34:59;;;;;;;2.70;1.65;;;15.60;83.50;;;;;;12787028;23;20187;-86
2022/05/15 06:40:02;;;;;;;2.75;1.65;;;18.10;80.10;;;;;;12814823;23;20199;-86
2022/05/15 06:45:05;;;;;;;2.10;1.55;;;18.90;77.30;;;;;;12833144;23;20167;-86
2022/05/15 06:50:11;;;;;;;3.60;1.50;;;19.00;76.40;;;;;;12793186;23;20167;-86
2022/05/15 06:55:18;;;;;;;2.42;1.50;;;18.50;72.90;;;;;;12794284;23;20168;-85
2022/05/15 07:00:25;;;;;;;3.22;1.30;;;17.90;80.80;;;;;;12835741;23;20191;-86
2022/05/15 07:05:30;;;;;;;1.30;1.20;;;18.30;76.10;;;;;;12792579;23;20179;-86
2022/05/15 07:10:33;;;;;;;1.65;1.40;;;19.60;74.40;;;;;;12812110;23;20226;-86
2022/05/15 07:15:37;;;;;;;2.28;1.40;;;19.60;74.90;;;;;;12809999;23;20176;-86
2022/05/15 07:20:39;;;;;;;1.90;1.70;;;19.30;75.20;;;;;;12817825;23;20257;-86
2022/05/15 07:25:42;;;;;;;4.10;1.48;;;17.40;79.60;;;;;;12767311;23;20180;-85
2022/05/15 07:30:44;;;;;;;2.38;1.52;;;16.70;74.70;;;;;;12818114;23;20229;-86
2022/05/15 07:35:47;;;;;;;1.80;1.30;;;17.90;80.30;;;;;;12792832;23;20230;-86
2022/05/15 07:40:50;;;;;;;1.95;1.75;;;19.30;75.60;;;;;;12790947;23;20587;-85
2022/05/15 07:45:52;;;;;;;2.25;1.50;;;18.40;76.50;;;;;;12815681;23;20203;-86
2022/05/15 07:50:56;;;;;;;1.85;1.30;;;19.50;74.40;;;;;;12793248;23;20226;-86
2022/05/15 07:55:59;;;;;;;4.47;1.60;;;19.60;73.60;;;;;;12790992;23;20187;-85
2022/05/15 08:01:04;;;;;;;2.20;1.00;;;18.80;68.60;;;;;;12816615;23;20191;-85
2022/05/15 08:11:28;;;;;;;1.83;1.50;;;19.30;74.30;;;;;;12790508;23;20525;-86
2022/05/15 08:16:35;;;;;;;1.73;1.40;;;18.90;73.70;;;;;;12813696;23;20643;-86
2022/05/15 08:26:58;;;;;;;1.20;0.93;;;19.70;72.60;;;;;;12788410;23;20726;-86
2022/05/15 08:32:07;;;;;;;2.38;1.15;;;19.90;72.00;;;;;;12804407;23;20175;-86
2022/05/15 08:37:10;;;;;;;5.07;0.88;;;18.30;70.10;;;;;;12789324;23;20179;-85
2022/05/15 08:42:39;;;;;;;2.78;1.45;;;18.30;68.50;;;;;;12787770;23;20250;-86
2022/05/15 08:47:45;;;;;;;2.22;1.23;;;18.20;68.40;;;;;;12811022;23;20258;-86
2022/05/15 08:53:14;;;;;;;2.78;1.15;;;18.20;76.00;;;;;;12790035;23;20179;-85
2022/05/15 08:58:50;;;;;;;1.42;1.33;;;17.90;75.30;;;;;;12828696;23;20167;-86
2022/05/15 09:03:54;;;;;;;2.00;1.27;;;19.40;73.00;;;;;;12793859;23;20167;-85
2022/05/15 09:09:01;;;;;;;5.82;0.70;;;19.30;73.60;;;;;;12792370;23;20168;-85
2022/05/15 09:14:09;;;;;;;2.10;1.42;;;19.10;67.40;;;;;;12789759;23;20172;-86
2022/05/15 09:19:11;;;;;;;4.20;1.08;;;19.40;72.30;;;;;;12791844;23;20230;-86
2022/05/15 09:24:34;;;;;;;1.83;0.98;;;19.50;70.20;;;;;;12833645;23;20196;-86
2022/05/15 09:29:36;;;;;;;1.10;1.00;;;19.70;71.80;;;;;;12833251;23;20176;-86
2022/05/15 09:34:42;;;;;;;1.30;0.90;;;19.80;70.80;;;;;;12788587;23;20191;-85
2022/05/15 09:40:05;;;;;;;7.72;1.70;;;18.30;70.40;;;;;;12814763;23;20264;-85
2022/05/15 09:45:14;;;;;;;5.78;1.05;;;18.90;67.70;;;;;;12815196;23;20168;-85
2022/05/15 09:50:38;;;;;;;1.45;0.95;;;17.80;69.20;;;;;;12809509;23;20511;-85
2022/05/15 09:55:41;;;;;;;2.25;0.90;;;18.50;73.80;;;;;;12790244;23;20639;-85
2022/05/15 10:00:43;;;;;;;1.88;0.93;;;17.60;71.40;;;;;;12764692;23;20301;-86
2022/05/15 10:05:57;;;;;;;1.17;0.90;;;18.60;73.00;;;;;;12788750;23;20650;-86
2022/05/15 10:11:03;;;;;;;1.70;1.23;;;19.50;71.20;;;;;;12810731;23;20168;-85
2022/05/15 10:16:07;;;;;;;1.00;0.90;;;19.70;70.60;;;;;;12818231;23;20564;-86
2022/05/15 10:21:15;;;;;;;2.20;0.88;;;19.80;70.20;;;;;;12811697;23;20214;-85
2022/05/15 10:26:41;;;;;;;0.75;0.60;;;19.80;67.40;;;;;;12812442;23;20222;-86
2022/05/15 10:31:59;;;;;;;2.25;1.15;;;19.70;65.40;;;;;;12792207;23;20647;-85
2022/05/15 10:37:11;;;;;;;2.50;0.98;;;19.60;70.60;;;;;;12836937;23;20171;-85
2022/05/15 10:42:42;;;;;;;3.00;0.95;;;19.50;66.20;;;;;;12810936;23;20191;-86
2022/05/15 10:48:25;;;;;;;4.10;1.00;;;19.70;63.50;;;;;;12801705;23;20227;-85
2022/05/15 10:59:11;;;;;;;1.08;0.95;;;19.80;69.10;;;;;;12791176;23;20184;-85
2022/05/15 11:04:38;;;;;;;3.83;1.25;;;19.90;69.20;;;;;;12792757;23;20184;-85
2022/05/15 11:10:12;;;;;;;2.17;1.00;;;19.70;68.00;;;;;;12791875;23;20184;-85
2022/05/15 11:15:43;;;;;;;2.53;0.85;;;19.30;67.70;;;;;;12790691;23;20184;-86
2022/05/15 11:20:55;;;;;;;1.27;0.68;;;19.80;68.40;;;;;;12789962;23;20222;-86
2022/05/15 11:26:20;;;;;;;1.23;0.90;;;19.70;67.40;;;;;;12831650;23;20512;-86
2022/05/15 11:31:29;;;;;;;1.48;1.00;;;19.80;66.10;;;;;;12815113;23;20179;-86
2022/05/15 11:36:47;;;;;;;2.08;0.40;;;19.70;69.00;;;;;;12833668;23;20242;-86
2022/05/15 11:42:08;;;;;;;2.22;0.85;;;19.50;63.20;;;;;;12791162;23;20303;-86
2022/05/15 11:47:32;;;;;;;2.50;0.90;;;19.90;67.90;;;;;;12792874;23;20196;-85
2022/05/15 11:52:53;;;;;;;0.85;0.82;;;19.80;67.50;;;;;;12811659;23;20306;-86
2022/05/15 11:58:21;;;;;;;3.30;0.73;;;19.70;68.10;;;;;;12789863;23;20254;-85
2022/05/15 12:03:46;;;;;;;1.08;0.80;;;19.40;62.10;;;;;;12798011;23;20578;-86
2022/05/15 12:09:18;;;;;;;1.05;0.80;;;19.90;67.40;;;;;;12779765;23;20509;-86
2022/05/15 12:14:29;;;;;;;2.20;0.95;;;20.00;67.30;;;;;;12815599;23;20223;-86
2022/05/15 12:19:44;;;;;;;2.63;0.75;;;19.90;67.30;;;;;;12790480;23;20183;-86
2022/05/15 12:24:49;;;;;;;2.17;0.60;;;19.70;61.90;;;;;;12833821;23;20218;-86
2022/05/15 12:30:22;;;;;;;1.27;0.85;;;19.70;60.40;;;;;;12816027;23;20175;-86
2022/05/15 12:35:33;;;;;;;1.63;0.60;;;19.70;67.50;;;;;;12833715;23;20511;-86
2022/05/15 12:40:55;;;;;;;1.27;0.73;;;20.00;61.70;;;;;;12809276;23;20187;-86
2022/05/15 12:45:58;;;;;;;2.33;0.80;;;19.90;65.20;;;;;;12790175;23;20200;-86
2022/05/15 12:51:03;;;;;;;1.42;0.80;;;19.80;65.90;;;;;;12790691;23;20188;-85
2022/05/15 12:56:29;;;;;;;3.03;0.90;;;20.00;66.20;;;;;;12790515;23;20179;-85
2022/05/15 13:01:32;;;;;;;0.90;0.68;;;20.00;61.40;;;;;;12802770;23;20223;-85
2022/05/15 13:06:48;;;;;;;0.70;0.57;;;20.20;63.70;;;;;;12790697;23;20496;-85
2022/05/15 13:11:54;;;;;;;1.27;1.00;;;20.20;62.80;;;;;;12814856;23;20234;-85
2022/05/15 13:16:58;;;;;;;1.35;1.00;;;20.20;64.40;;;;;;12828461;23;20172;-85
2022/05/15 13:22:02;;;;;;;2.35;1.15;;;20.10;66.40;;;;;;12815472;23;20496;-85
2022/05/15 13:27:05;;;;;;;1.25;0.70;;;20.30;65.80;;;;;;12814810;23;20183;-86
2022/05/15 13:32:12;;;;;;;3.67;1.20;;;20.30;65.40;;;;;;12792131;23;20171;-85
2022/05/15 13:37:37;;;;;;;0.85;0.80;;;20.30;59.40;;;;;;12809147;23;20227;-85
2022/05/15 13:48:07;;;;;;;1.20;0.70;;;20.20;60.20;;;;;;12799543;23;20262;-85
2022/05/15 13:53:43;;;;;;;3.22;1.00;;;20.40;65.40;;;;;;12789381;23;20179;-85
2022/05/15 13:58:54;;;;;;;2.20;0.90;;;20.20;59.60;;;;;;12601366;23;20237;-85
2022/05/15 14:03:58;;;;;;;0.95;0.57;;;20.20;59.50;;;;;;12576382;23;20660;-85
2022/05/15 14:09:08;;;;;;;1.60;0.80;;;20.50;65.00;;;;;;12599351;23;20229;-85
2022/05/15 14:14:13;;;;;;;2.60;1.10;;;20.50;64.10;;;;;;12584562;23;20237;-84
2022/05/15 14:19:18;;;;;;;1.23;0.90;;;20.50;64.60;;;;;;12552167;23;20725;-85
2022/05/15 14:24:20;;;;;;;1.45;1.15;;;20.60;65.20;;;;;;12552002;23;20260;-85
2022/05/15 14:29:23;;;;;;;1.88;0.90;;;20.60;65.10;;;;;;12575676;23;20270;-85
2022/05/15 14:34:26;;;;;;;1.88;0.95;;;20.60;60.70;;;;;;12703837;23;20184;-85
2022/05/15 14:39:29;;;;;;;2.08;0.73;;;20.60;64.70;;;;;;12811840;23;20172;-85
2022/05/15 14:44:31;;;;;;;1.52;0.95;;;20.60;64.90;;;;;;12789262;23;20207;-85
2022/05/15 14:49:35;;;;;;;1.05;0.80;;;20.70;64.90;;;;;;12787356;23;20203;-85
2022/05/15 14:54:37;;;;;;;1.80;1.08;;;20.70;64.80;;;;;;12791301;23;20242;-84
2022/05/15 14:59:43;;;;;;;0.95;0.75;;;20.70;59.20;;;;;;12794767;23;20338;-85
2022/05/15 15:04:45;;;;;;;1.83;0.68;;;20.50;62.80;;;;;;12792443;23;20199;-85
2022/05/15 15:09:48;;;;;;;2.55;0.65;;;20.70;64.70;;;;;;12791244;23;20184;-85
2022/05/15 15:14:51;;;;;;;1.92;1.10;;;20.80;63.60;;;;;;12790429;23;20167;-85
2022/05/15 15:19:53;;;;;;;1.15;0.98;;;20.90;64.50;;;;;;12790797;23;20279;-85
2022/05/15 15:24:56;;;;;;;1.58;0.70;;;20.90;64.50;;;;;;12809230;23;20746;-85
2022/05/15 15:29:58;;;;;;;1.20;0.80;;;20.60;60.00;;;;;;12789973;23;20180;-84
2022/05/15 15:35:01;;;;;;;2.00;1.05;;;20.60;58.30;;;;;;12791397;23;20250;-85
2022/05/15 15:40:06;;;;;;;3.30;1.02;;;21.10;61.30;;;;;;12807956;23;20171;-85
2022/05/15 15:45:09;;;;;;;3.60;1.10;;;20.90;59.40;;;;;;12791204;23;20168;-85
2022/05/15 15:50:12;;;;;;;1.80;1.08;;;20.90;60.20;;;;;;12788400;23;20745;-84
2022/05/15 15:55:14;;;;;;;3.63;0.60;;;20.90;61.80;;;;;;12808536;23;20171;-85
2022/05/15 16:00:17;;;;;;;3.20;1.27;;;21.20;61.70;;;;;;12788188;23;20184;-84
2022/05/15 16:05:22;;;;;;;4.28;1.30;;;21.30;61.40;;;;;;12789601;23;20184;-84
2022/05/15 16:10:24;;;;;;;1.33;0.95;;;21.00;59.50;;;;;;12804468;23;20167;-85
2022/05/15 16:15:27;;;;;;;4.03;1.15;;;20.80;62.00;;;;;;12856944;23;20242;-85
2022/05/15 16:20:40;;;;;;;6.65;1.10;;;20.50;58.80;;;;;;12852644;23;20223;-84
2022/05/15 16:25:43;;;;;;;6.15;1.67;;;20.90;60.90;;;;;;12853114;23;20227;-85
2022/05/15 16:30:47;;;;;;;1.70;1.27;;;20.80;58.80;;;;;;12853927;23;20215;-85
2022/05/15 16:35:50;;;;;;;3.30;1.20;;;20.80;62.40;;;;;;12876891;23;20231;-85
2022/05/15 16:40:52;;;;;;;3.72;1.10;;;20.80;60.30;;;;;;12853885;23;20202;-84
2022/05/15 16:45:55;;;;;;;1.20;0.90;;;20.40;62.40;;;;;;12854242;23;20283;-85
2022/05/15 16:50:58;;;;;;;2.33;1.08;;;20.60;63.50;;;;;;12876865;23;20226;-85
2022/05/15 16:56:03;;;;;;;1.52;0.90;;;20.60;62.60;;;;;;12851722;23;20231;-85
2022/05/15 17:01:06;;;;;;;3.45;1.25;;;20.30;58.00;;;;;;12878026;23;20256;-84
2022/05/15 17:06:08;;;;;;;2.40;0.85;;;20.20;60.90;;;;;;12872055;23;20199;-83
2022/05/15 17:11:11;;;;;;;2.00;1.25;;;20.40;64.00;;;;;;12861463;23;20550;-84
2022/05/15 17:16:14;;;;;;;3.30;1.15;;;20.60;62.60;;;;;;12810534;23;20183;-83
2022/05/15 17:21:16;;;;;;;5.70;1.60;;;20.50;63.10;;;;;;12801730;23;20218;-84
2022/05/15 17:26:19;;;;;;;11.88;1.48;;;20.10;59.50;;;;;;12821658;23;20515;-83
2022/05/15 17:36:44;;;;;;;1.63;1.02;;;19.50;64.70;;;;;;12800708;23;20187;-84
2022/05/15 17:41:50;;;;;;;4.10;1.27;;;19.80;66.50;;;;;;12821441;23;20230;-84
2022/05/15 17:46:53;;;;;;;1.48;0.70;;;19.90;65.30;;;;;;12809644;23;20222;-84
2022/05/15 17:51:56;;;;;;;3.40;1.70;;;19.80;66.30;;;;;;12794938;23;20183;-86
2022/05/15 17:56:59;;;;;;;9.10;1.73;;;19.50;65.90;;;;;;12795460;23;20215;-86
2022/05/15 18:02:02;;;;;;;3.78;1.73;;;19.30;63.10;;;;;;12796259;23;20192;-83
2022/05/15 18:07:05;;;;;;;7.97;1.60;;;18.70;64.30;;;;;;12795893;23;20246;-83
2022/05/15 18:12:09;;;;;;;8.13;2.08;;;18.70;64.30;;;;;;12798797;23;20184;-84
2022/05/15 18:17:12;;;;;;;7.80;1.90;;;18.40;65.30;;;;;;12796081;23;20188;-84
2022/05/15 18:22:14;;;;;;;6.35;1.60;;;18.40;65.80;;;;;;12802777;23;20196;-84
2022/05/15 18:27:18;;;;;;;7.68;1.98;;;18.00;67.40;;;;;;12790818;23;20235;-84
2022/05/15 18:32:23;;;;;;;4.05;2.15;;;17.50;67.00;;;;;;12830087;23;20226;-84
2022/05/15 18:43:00;;;;;;;4.72;2.20;;;17.00;70.10;;;;;;12722711;23;20744;-82
2022/05/15 18:48:03;;;;;;;7.47;1.80;;;17.00;69.10;;;;;;12718001;23;20230;-82
2022/05/15 18:58:28;;;;;;;3.72;1.67;;;17.40;69.40;;;;;;12730755;23;20176;-82
2022/05/15 19:03:31;;;;;;;7.22;1.83;;;16.80;68.90;;;;;;12676548;23;20208;-83
2022/05/15 19:08:33;;;;;;;8.45;2.53;;;16.60;70.00;;;;;;12725018;23;20161;-84
2022/05/15 19:13:36;;;;;;;7.63;2.05;;;16.70;71.00;;;;;;12699078;23;20506;-85
2022/05/15 19:18:39;;;;;;;6.30;2.22;;;16.40;69.80;;;;;;12718830;23;20570;-84
2022/05/15 19:23:41;;;;;;;4.65;1.52;;;16.40;70.40;;;;;;12700290;23;20517;-84
2022/05/15 19:28:48;;;;;;;2.75;1.50;;;16.30;71.10;;;;;;12699930;23;20647;-85
2022/05/15 19:33:50;;;;;;;7.05;2.00;;;16.00;70.80;;;;;;12744657;23;20514;-84
2022/05/15 19:38:54;;;;;;;3.35;1.58;;;16.30;71.50;;;;;;12726830;23;20223;-85
2022/05/15 19:43:56;;;;;;;5.55;2.00;;;16.50;72.90;;;;;;12727463;23;20590;-84
2022/05/15 19:48:58;;;;;;;4.03;1.55;;;15.80;71.30;;;;;;12675594;23;20227;-82
2022/05/15 19:54:02;;;;;;;5.10;2.72;;;15.70;77.30;;;;;;12719590;23;20172;-82
2022/05/15 19:59:06;;;;;;;10.18;2.20;;;15.40;76.70;;;;;;12699974;23;20184;-82
2022/05/15 20:04:09;;;;;;;3.67;1.80;;;15.00;77.50;;;;;;12717675;23;20250;-82
2022/05/15 20:14:51;;;;;;;6.13;2.30;;;15.00;82.30;;;;;;12538141;23;20533;-82
2022/05/15 20:19:54;;;;;;;2.10;1.67;;;14.90;80.80;;;;;;12538781;23;20190;-82
2022/05/15 20:24:56;;;;;;;8.85;1.40;;;15.00;81.20;;;;;;12512692;23;20673;-82
2022/05/15 20:29:59;;;;;;;3.17;1.43;;;15.20;78.90;;;;;;12538776;23;20182;-83
2022/05/15 20:35:02;;;;;;;4.33;1.50;;;15.60;81.40;;;;;;12514755;23;20233;-83
2022/05/15 20:40:06;;;;;;;7.20;2.03;;;15.50;78.90;;;;;;12536929;23;20214;-83
2022/05/15 20:45:09;;;;;;;5.33;1.90;;;15.20;78.60;;;;;;12515453;23;20238;-82
2022/05/15 20:50:11;;;;;;;9.03;2.00;;;14.50;80.30;;;;;;12699338;23;20184;-82
2022/05/15 20:55:14;;;;;;;4.73;2.30;;;14.10;83.60;;;;;;12725028;23;20231;-82
2022/05/15 21:00:18;;;;;;;2.60;1.20;;;13.70;85.20;;;;;;12698960;23;20184;-82
2022/05/15 21:05:27;;;;;;;5.30;1.63;;;13.40;90.20;;;;;;12718403;23;20243;-83
2022/05/15 21:10:29;;;;;;;3.43;1.30;;;13.60;90.10;;;;;;12724774;23;20227;-82
2022/05/15 21:15:32;;;;;;;8.13;1.73;;;13.80;91.20;;;;;;12698499;23;20697;-82
2022/05/15 21:20:35;;;;;;;2.97;1.53;;;13.80;89.00;;;;;;12698640;23;20243;-82
2022/05/15 21:25:37;;;;;;;3.20;1.30;;;13.50;90.60;;;;;;12742630;23;20219;-85
2022/05/15 21:30:42;;;;;;;4.43;2.10;;;13.50;92.40;;;;;;12702725;23;20231;-85
2022/05/15 21:35:47;;;;;;;3.20;1.57;;;13.50;91.70;;;;;;12730149;23;20173;-85
2022/05/15 21:46:21;;;;;;;4.87;1.57;;;14.30;91.50;;;;;;12730049;23;20188;-85
2022/05/15 21:51:24;;;;;;;1.60;1.10;;;15.00;88.50;;;;;;12721074;23;20200;-85
2022/05/15 21:56:27;;;;;;;3.63;1.97;;;15.10;88.50;;;;;;12702706;23;20725;-85
2022/05/15 22:01:30;;;;;;;2.90;1.67;;;15.30;86.50;;;;;;12704086;23;20239;-85
2022/05/15 22:06:32;;;;;;;3.13;1.17;;;15.50;85.10;;;;;;12733960;23;20188;-86
2022/05/15 22:11:34;;;;;;;7.10;2.13;;;15.50;86.80;;;;;;12733701;23;20180;-83
2022/05/15 22:16:37;;;;;;;4.80;1.53;;;14.50;86.80;;;;;;12707320;23;20793;-85
2022/05/15 22:21:40;;;;;;;2.33;1.20;;;15.20;89.70;;;;;;12708002;23;20185;-84
2022/05/15 22:26:44;;;;;;;2.45;1.50;;;15.10;86.80;;;;;;12707959;23;20181;-83
2022/05/15 22:31:46;;;;;;;3.23;1.23;;;14.60;88.20;;;;;;12734649;23;20169;-84
2022/05/15 22:36:49;;;;;;;4.53;1.60;;;14.60;90.50;;;;;;12752087;23;20503;-84
2022/05/15 22:41:51;;;;;;;2.93;1.60;;;14.00;91.10;;;;;;12708179;23;20196;-84
2022/05/15 22:46:54;;;;;;;3.60;1.53;;;14.20;91.90;;;;;;12708533;23;20164;-84
2022/05/15 22:51:57;;;;;;;3.77;2.03;;;14.40;91.20;;;;;;12707560;23;20503;-84
2022/05/15 22:56:59;;;;;;;3.67;1.50;;;14.10;91.80;;;;;;12734536;23;20485;-84
2022/05/15 23:02:02;;;;;;;2.57;1.37;;;13.50;94.10;;;;;;12734181;23;20541;-84
2022/05/15 23:12:26;;;;;;;6.70;1.87;;;14.10;94.00;;;;;;12707043;23;20192;-84
2022/05/15 23:17:29;;;;;;;1.57;1.00;;;13.80;92.80;;;;;;12733072;23;20550;-84
2022/05/15 23:22:31;;;;;;;3.63;1.30;;;13.60;94.90;;;;;;12748645;23;20184;-85
2022/05/15 23:27:35;;;;;;;2.53;1.20;;;13.90;94.20;;;;;;12733537;23;20173;-84
2022/05/15 23:32:37;;;;;;;4.73;1.40;;;14.60;93.30;;;;;;12733574;23;20220;-85
2022/05/15 23:37:40;;;;;;;3.57;1.93;;;14.30;91.70;;;;;;12732661;23;20168;-84
2022/05/15 23:42:43;;;;;;;3.87;1.30;;;13.50;93.10;;;;;;12668841;23;20245;-84
2022/05/15 23:47:47;;;;;;;3.07;1.50;;;13.50;96.70;;;;;;12670679;23;20165;-85
2022/05/15 23:52:49;;;;;;;2.50;1.60;;;14.30;93.60;;;;;;12672045;23;20173;-84
2022/05/15 23:57:52;;;;;;;2.63;1.43;;;14.70;92.30;;;;;;12671502;23;20232;-85
